Hatton, Kentucky
Current Conditions -  °F | °C
As of 6:53 AM on Sunday 25 Jan 2015 (Local Time) from KFFT Reporting Station
Few Clouds Few Clouds  
Wind Chill: 30°   Ceiling: Unl
Heat Index: 37°   Visibility: 10mi
Dew Point: 30°   Wind: 9mph
Humidity: 76%   Direction: 190°S
Pressure: 29.73"   Gusts: NA
Location:  38.2128°N, 84.9741°W
Report Text: KFFT 251153Z AUTO 19008KT 10SM FEW120 03/M01 A2973 RMK AO2 SLP073 T00281011 10028 20011 58010
Loading
Personal Weather Stations






























Interactive Weather Map New forecast layout! Learn more

10-Day Weather Forecast

Advertisements
Track Severe Weather on mobile